• Join FlightAware (Why Join?)
  • Login
  • US Flag 
10:28PM EST


 

Airport Tracker/Info


-or-


 

Live Flight TrackerFlight Track Log ✈ SWA631 ✈ 04-May-2014 ✈ KOMA - KMDW

Flight Track Log - Related Links

Times and Time Zones

All times are in EDT time to prevent confusion due to time zone crossing. See the SWA631 flight status page for this flight to view local times or setup timezone preferences in your user account.

Time Position Orientation Groundspeed Altitude Reporting Facility
EDT Latitude Longitude Course Direction KTS MPH feet Rate Location/Type
09:17PM 41.2931 -95.8919 145° Southeast 176 203 1,500  Level Minneapolis Center
09:17PM 41.2772 -95.8772 145° Southeast 165 190 2,500 2,160 Climbing Minneapolis Center
09:18PM 41.2381 -95.8236 134° Southeast 237 273 4,600 1,800 Climbing Minneapolis Center
09:18PM 41.2383 -95.8189 86° East 207 238 4,700 2,040 Climbing Minneapolis Center
09:19PM 41.2231 -95.7219 102° East 245 282 7,100 2,820 Climbing Minneapolis Center
09:20PM 41.2036 -95.6089 103° East 282 325 10,500 2,940 Climbing Minneapolis Center
09:22PM 41.1769 -95.4522 103° East 335 386 13,200 2,820 Climbing Minneapolis Center
09:23PM 41.1519 -95.3042 103° East 398 458 16,400 2,940 Climbing Minneapolis Center
09:24PM 41.1253 -95.1531 103° East 418 481 19,300 2,580 Climbing Minneapolis Center
09:25PM 41.0978 -94.9931 103° East 436 502 21,700 2,280 Climbing Minneapolis Center
09:26PM 41.0683 -94.8281 103° East 455 524 24,000 2,100 Climbing Minneapolis Center
09:27PM 41.0394 -94.6578 103° East 467 537 26,100 1,980 Climbing Minneapolis Center
09:28PM 41.0050 -94.4717 104° East 485 558 28,100 1,740 Climbing Minneapolis Center
09:29PM 40.9742 -94.2950 103° East 493 567 29,700 1,380 Climbing Minneapolis Center
09:30PM 40.9414 -94.1147 103° East 502 578 31,000 600 Climbing Minneapolis Center
09:31PM 40.9078 -93.9347 104° East 503 579 31,000  Level Minneapolis Center
09:32PM 40.8736 -93.7567 104° East 504 580 31,000  Level Minneapolis Center
09:33PM 40.8403 -93.5406 101° East 504 580 31,000  Level Minneapolis Center
09:34PM 40.8561 -93.3589 83° East 503 579 31,000  Level Minneapolis Center
09:35PM 40.8733 -93.1769 83° East 503 579 31,000  Level Minneapolis Center
09:36PM 40.8861 -93.0308 83° East 500 575 31,000  Level Chicago Center
09:37PM 40.9019 -92.8475 83° East 501 577 31,000  Level Chicago Center
09:38PM 40.9206 -92.6267 84° East 502 578 31,000  Level Chicago Center
09:39PM 40.9358 -92.4422 84° East 503 579 31,000  Level Chicago Center
09:40PM 40.9508 -92.2567 84° East 505 581 31,000  Level Chicago Center
09:41PM 40.9653 -92.0717 84° East 505 581 31,000  Level Chicago Center
09:42PM 40.9794 -91.8897 84° East 505 581 31,000  Level Chicago Center
09:43PM 40.9933 -91.7064 84° East 505 581 31,000  Level Chicago Center
09:44PM 41.0089 -91.4950 84° East 504 580 31,000 -240 Level Chicago Center
09:45PM 41.0222 -91.3111 84° East 503 579 30,600 -720 Descending Chicago Center
09:46PM 41.0344 -91.1283 85° East 503 579 29,600 -1,560 Descending Chicago Center
09:47PM 41.0475 -90.9472 84° East 499 574 27,500 -1,560 Descending Chicago Center
09:48PM 41.0600 -90.7689 85° East 488 562 26,500 -1,020 Descending Chicago Center
09:49PM 41.0728 -90.5900 85° East 489 563 25,500 -1,020 Descending Chicago Center
09:50PM 41.0881 -90.4111 83° East 487 560 24,500 -1,020 Descending Chicago Center
09:51PM 41.1136 -90.2392 79° East 475 547 23,500 -1,020 Descending Chicago Center
09:52PM 41.1411 -90.0706 78° East 469 540 22,500 -1,020 Descending Chicago Center
09:53PM 41.1664 -89.9058 78° East 457 526 21,500 -1,020 Descending Chicago Center
09:54PM 41.1917 -89.7425 78° East 452 520 20,500 -1,140 Descending Chicago Center
09:55PM 41.2219 -89.5519 78° East 442 509 19,300 -1,320 Descending Chicago Center
09:56PM 41.2447 -89.3958 79° East 433 498 17,900 -1,860 Descending Chicago Center
09:57PM 41.2681 -89.2425 79° East 427 491 15,600 -2,340 Descending Chicago Center
09:58PM 41.2889 -89.0906 80° East 414 476 13,200 -2,340 Descending Chicago Center
09:59PM 41.3108 -88.9439 79° East 409 471 10,900 -1,560 Descending Chicago Center
10:00PM 41.3331 -88.7961 79° East 373 429 10,100 -840 Descending Chicago Center
10:01PM 41.3494 -88.6814 79° East 315 362 9,200 -1,080 Descending Chicago Center
10:02PM 41.3719 -88.5739 74° East 301 346 7,900 -1,200 Descending Chicago Center
10:03PM 41.4164 -88.4747 59° Northeast 293 337 6,800 -960 Descending Chicago Center
10:04PM 41.4553 -88.3814 61° Northeast 289 333 6,000 -540 Descending Chicago Center
10:05PM 41.4939 -88.2919 60° Northeast 285 328 5,700 -480 Descending Chicago Center
10:06PM 41.5300 -88.2078 60° Northeast 262 302 5,100 -660 Descending Chicago Center
10:07PM 41.5631 -88.1283 61° Northeast 231 266 4,400 -540 Descending Chicago Center
10:08PM 41.5928 -88.0592 60° Northeast 220 253 4,000 -240 Descending Chicago Center
10:09PM 41.6211 -87.9925 60° Northeast 209 241 4,000  Level Chicago Center
10:11PM 41.6489 -87.9261 61° Northeast 206 237 4,000 -420 Level Chicago Center
10:12PM 41.6869 -87.8739 46° Northeast 182 209 3,200 -840 Descending Chicago Center
10:13PM 41.7203 -87.8328 43° Northeast 162 186 2,300 -840 Descending Chicago Center
10:14PM 41.7456 -87.8006 44° Northeast 126 145 1,600 -720 Descending Chicago Center
10:15PM 41.7694 -87.7700 44° Northeast 122 140 900 -540 Descending Chicago Center
10:16PM 41.7961 -87.7353 44° Northeast 122 140 600 -300 Descending Chicago Center